Terminal Aerodrome Forecast
Issued by NWS Louisville, KY

Home | Current Version | Previous Version | Text Only | Print | Product List | Glossary On
Versions: 1 2 3 4 5 6 7 8 9 10 11 12 13 14 15 16 17
000
FTUS43 KLMK 192019 AAA
TAFBWG
TAF AMD
KBWG 192019Z 1920/2018 20005KT P6SM FEW025 SCT250
     FM200500 VRB03KT 5SM BR FEW012 BKN200
     FM200800 00000KT 2SM BR BKN008
     FM201400 12004KT P6SM FEW010 BKN200=

USA.gov is the U.S. government's official web portal to all federal, state and local government web resources and services.